createdAt,value
2023-02-23T00:01:42.027Z,74.67
2023-02-23T00:04:10.335Z,75.00
2023-02-23T00:06:39.019Z,74.95
2023-02-23T00:09:15.513Z,74.89
2023-02-23T00:11:43.321Z,75.12
2023-02-23T00:14:11.123Z,77.38
2023-02-23T00:16:38.896Z,78.89
2023-02-23T00:19:08.305Z,79.21
2023-02-23T00:21:36.219Z,77.63
2023-02-23T00:24:09.949Z,76.55
2023-02-23T00:26:43.125Z,75.85
2023-02-23T00:29:17.157Z,75.73
2023-02-23T00:31:45.345Z,77.36
2023-02-23T00:34:15.966Z,77.82
2023-02-23T00:36:44.482Z,78.95
2023-02-23T00:39:21.626Z,79.19
2023-02-23T00:41:50.425Z,79.60
2023-02-23T00:44:18.263Z,79.86
2023-02-23T00:46:49.412Z,80.78
2023-02-23T00:49:17.488Z,81.66
2023-02-23T00:51:45.516Z,84.83
2023-02-23T00:54:15.571Z,83.69
2023-02-23T00:56:43.606Z,82.34
2023-02-23T00:59:12.058Z,81.62
2023-02-23T01:01:41.831Z,82.32
2023-02-23T01:04:11.139Z,86.44
2023-02-23T01:06:41.303Z,86.25
2023-02-23T01:09:10.408Z,85.79
2023-02-23T01:11:41.329Z,84.99
2023-02-23T01:14:11.812Z,84.89
2023-02-23T01:16:39.863Z,85.43
2023-02-23T01:19:08.827Z,84.87
2023-02-23T01:21:39.444Z,83.76
2023-02-23T01:24:07.847Z,84.33
2023-02-23T01:26:39.717Z,85.60
2023-02-23T01:29:10.356Z,87.11
2023-02-23T01:31:39.727Z,88.43
2023-02-23T01:34:08.344Z,87.17
2023-02-23T01:36:38.898Z,87.69
2023-02-23T01:39:08.786Z,87.71
2023-02-23T01:41:37.890Z,87.98
2023-02-23T01:44:09.289Z,87.54
2023-02-23T01:46:39.781Z,88.74
2023-02-23T01:49:11.155Z,89.39
2023-02-23T01:51:43.868Z,88.40
2023-02-23T01:54:17.605Z,89.40
2023-02-23T01:56:49.226Z,90.36
2023-02-23T01:59:19.201Z,92.01
2023-02-23T02:01:48.200Z,92.19
2023-02-23T02:04:19.475Z,89.68
2023-02-23T02:06:53.575Z,88.77
2023-02-23T02:09:25.671Z,89.26
2023-02-23T02:11:54.434Z,90.88
2023-02-23T02:14:28.441Z,90.32
2023-02-23T02:17:16.302Z,89.05
2023-02-23T02:20:14.879Z,87.90
2023-02-23T02:23:08.379Z,89.86
2023-02-23T02:25:50.661Z,90.23
2023-02-23T02:29:03.559Z,90.85
2023-02-23T02:32:11.117Z,92.53
2023-02-23T02:35:11.657Z,91.16
2023-02-23T02:38:03.931Z,90.17
2023-02-23T02:40:53.160Z,89.50
2023-02-23T02:43:27.704Z,89.76
2023-02-23T02:46:02.636Z,89.24
2023-02-23T02:48:41.800Z,92.59
2023-02-23T02:51:20.329Z,93.30
2023-02-23T02:53:58.138Z,93.05
2023-02-23T02:56:28.205Z,93.21
2023-02-23T02:58:56.754Z,91.66
2023-02-23T03:01:41.947Z,93.36
2023-02-23T03:04:42.216Z,93.75
2023-02-23T03:07:38.786Z,92.83
2023-02-23T03:10:36.834Z,92.96
2023-02-23T03:13:36.056Z,95.00
2023-02-23T03:16:34.241Z,94.50
2023-02-23T03:19:30.121Z,94.31
2023-02-23T03:22:24.930Z,95.70
2023-02-23T03:25:15.481Z,95.74
2023-02-23T03:28:07.435Z,96.13
2023-02-23T03:31:02.161Z,94.86
2023-02-23T03:33:55.637Z,92.37
2023-02-23T03:36:44.453Z,92.37
2023-02-23T03:39:38.584Z,91.34
2023-02-23T03:42:29.383Z,92.30
2023-02-23T03:45:20.444Z,92.77
2023-02-23T03:48:08.743Z,91.94
2023-02-23T03:50:59.038Z,90.85
2023-02-23T03:53:52.346Z,90.55
2023-02-23T03:56:42.999Z,91.28
2023-02-23T03:59:33.333Z,92.72
2023-02-23T04:02:21.290Z,93.26
2023-02-23T04:05:07.798Z,93.39
2023-02-23T04:07:53.731Z,94.24
2023-02-23T04:10:40.053Z,93.44
2023-02-23T04:13:17.344Z,92.56
2023-02-23T04:15:53.521Z,94.34
2023-02-23T04:18:27.182Z,93.83
2023-02-23T04:20:55.574Z,94.42
2023-02-23T04:23:24.089Z,94.36
2023-02-23T04:25:52.663Z,93.66
2023-02-23T04:28:20.817Z,91.84
2023-02-23T04:30:48.781Z,90.90
2023-02-23T04:33:16.955Z,91.87
2023-02-23T04:35:46.154Z,91.61
2023-02-23T04:38:13.898Z,91.91
2023-02-23T04:40:41.743Z,91.29
2023-02-23T04:43:11.487Z,91.18
2023-02-23T04:45:39.348Z,91.56
2023-02-23T04:48:07.797Z,91.62
2023-02-23T04:50:35.987Z,91.77
2023-02-23T04:53:05.576Z,91.57
2023-02-23T04:55:33.760Z,91.01
2023-02-23T04:58:04.137Z,91.34
2023-02-23T05:00:33.455Z,90.71
2023-02-23T05:03:01.199Z,89.67
2023-02-23T05:05:29.056Z,89.47
2023-02-23T05:07:56.838Z,89.67
2023-02-23T05:10:25.995Z,89.33
2023-02-23T05:12:53.789Z,88.78
2023-02-23T05:15:21.571Z,88.33
2023-02-23T05:17:51.407Z,88.35
2023-02-23T05:20:19.248Z,88.65
2023-02-23T05:22:47.063Z,88.19
2023-02-23T05:25:15.220Z,89.19
2023-02-23T05:27:44.368Z,89.31
2023-02-23T05:30:15.524Z,90.13
2023-02-23T05:32:43.373Z,89.56
2023-02-23T05:35:12.392Z,90.65
2023-02-23T05:37:40.136Z,91.26
2023-02-23T05:40:09.508Z,91.07
2023-02-23T05:42:39.439Z,90.68
2023-02-23T05:45:10.915Z,90.88
2023-02-23T05:47:39.076Z,90.39
2023-02-23T05:50:08.019Z,90.17
2023-02-23T05:52:41.611Z,89.80
2023-02-23T05:55:11.567Z,89.58
2023-02-23T05:57:39.628Z,89.38
2023-02-23T06:00:12.100Z,88.93
2023-02-23T06:02:41.725Z,90.55
2023-02-23T06:05:09.991Z,92.70
2023-02-23T06:07:37.787Z,93.13
2023-02-23T06:10:06.850Z,92.47
2023-02-23T06:12:34.720Z,91.92
2023-02-23T06:15:02.515Z,93.69
2023-02-23T06:17:32.153Z,93.19
2023-02-23T06:20:01.935Z,93.53
2023-02-23T06:22:29.721Z,92.49
2023-02-23T06:24:57.613Z,91.84
2023-02-23T06:27:26.192Z,91.45
2023-02-23T06:29:54.135Z,91.52
2023-02-23T06:32:22.088Z,91.18
2023-02-23T06:34:53.039Z,91.05
2023-02-23T06:37:20.839Z,91.76
2023-02-23T06:39:50.984Z,92.09
2023-02-23T06:42:18.940Z,92.22
2023-02-23T06:44:46.766Z,92.07
2023-02-23T06:47:14.582Z,91.47
2023-02-23T06:49:42.613Z,91.87
2023-02-23T06:52:13.491Z,91.31
2023-02-23T06:54:41.794Z,92.39
2023-02-23T06:57:09.663Z,91.91
2023-02-23T06:59:37.839Z,91.45
2023-02-23T07:02:05.866Z,91.13
2023-02-23T07:04:34.450Z,91.19
2023-02-23T07:07:03.667Z,91.66
2023-02-23T07:09:32.815Z,91.62
2023-02-23T07:12:01.023Z,92.08
2023-02-23T07:14:31.072Z,91.84
2023-02-23T07:16:58.820Z,91.62
2023-02-23T07:19:26.812Z,91.49
2023-02-23T07:21:54.673Z,91.68
2023-02-23T07:24:24.472Z,91.82
2023-02-23T07:26:53.617Z,91.34
2023-02-23T07:29:22.726Z,91.83
2023-02-23T07:31:50.797Z,92.38
2023-02-23T07:34:18.755Z,91.49
2023-02-23T07:36:46.544Z,91.29
2023-02-23T07:39:14.519Z,90.75
2023-02-23T07:41:42.389Z,90.05
2023-02-23T07:44:20.369Z,92.02
2023-02-23T07:46:48.404Z,92.58
2023-02-23T07:49:16.490Z,92.37
2023-02-23T07:51:44.338Z,91.59
2023-02-23T07:54:12.132Z,90.53
2023-02-23T07:56:39.901Z,89.22
2023-02-23T07:59:07.683Z,88.64
2023-02-23T08:01:37.038Z,88.55
2023-02-23T08:04:05.538Z,88.10
2023-02-23T08:06:33.384Z,88.74
2023-02-23T08:09:02.013Z,91.09
2023-02-23T08:11:29.950Z,92.77
2023-02-23T08:14:00.073Z,91.40
2023-02-23T08:16:28.431Z,90.28
2023-02-23T08:19:01.068Z,91.20
2023-02-23T08:21:30.616Z,91.01
2023-02-23T08:23:58.925Z,90.10
2023-02-23T08:26:27.158Z,90.61
2023-02-23T08:28:54.915Z,90.15
2023-02-23T08:31:24.522Z,89.89
2023-02-23T08:33:53.778Z,91.98
2023-02-23T08:36:23.142Z,91.45
2023-02-23T08:38:53.696Z,91.60
2023-02-23T08:41:22.189Z,91.87
2023-02-23T08:43:52.074Z,91.74
2023-02-23T08:46:20.681Z,90.96
2023-02-23T08:48:48.831Z,90.21
2023-02-23T08:51:16.893Z,91.08
2023-02-23T08:53:48.602Z,89.18
2023-02-23T08:56:16.760Z,88.80
2023-02-23T08:58:44.809Z,89.04
2023-02-23T09:01:19.075Z,90.37
2023-02-23T09:03:47.194Z,91.55
2023-02-23T09:06:17.360Z,92.92
2023-02-23T09:08:45.168Z,92.44
2023-02-23T09:11:14.243Z,91.80
2023-02-23T09:13:41.967Z,91.18
2023-02-23T09:16:09.990Z,92.26
2023-02-23T09:18:38.728Z,90.83
2023-02-23T09:21:08.723Z,88.70
2023-02-23T09:23:36.923Z,87.73
2023-02-23T09:26:05.321Z,87.23
2023-02-23T09:28:35.105Z,89.26
2023-02-23T09:31:07.021Z,90.53
2023-02-23T09:33:34.960Z,89.56
2023-02-23T09:36:07.080Z,89.75
2023-02-23T09:38:35.046Z,88.51
2023-02-23T09:41:02.855Z,87.42
2023-02-23T09:43:38.172Z,86.27
2023-02-23T09:46:29.242Z,85.66
2023-02-23T09:49:03.502Z,86.68
2023-02-23T09:51:34.835Z,83.69
2023-02-23T09:54:04.442Z,83.60
2023-02-23T09:56:35.922Z,82.86
2023-02-23T09:59:07.366Z,81.13
2023-02-23T10:01:57.869Z,81.23
2023-02-23T10:04:32.166Z,81.15
2023-02-23T10:07:05.331Z,79.86
2023-02-23T10:10:04.110Z,79.34
2023-02-23T10:12:43.180Z,80.71
2023-02-23T10:15:21.789Z,80.49
2023-02-23T10:18:03.369Z,81.07
2023-02-23T10:20:44.315Z,79.38
2023-02-23T10:23:17.854Z,77.74
2023-02-23T10:25:50.812Z,77.38
2023-02-23T10:28:22.343Z,76.99
2023-02-23T10:30:53.727Z,75.28
2023-02-23T10:33:25.702Z,74.35
2023-02-23T10:36:12.532Z,75.63
2023-02-23T10:38:41.279Z,73.83
2023-02-23T10:41:11.721Z,75.90
2023-02-23T10:43:40.671Z,74.24
2023-02-23T10:46:18.503Z,74.12
2023-02-23T10:48:48.501Z,73.27
2023-02-23T10:51:21.219Z,73.69
2023-02-23T10:53:49.312Z,73.31
2023-02-23T10:56:19.720Z,74.47
2023-02-23T10:58:49.378Z,76.99
2023-02-23T11:01:36.396Z,75.61
2023-02-23T11:04:17.262Z,75.30
2023-02-23T11:06:46.723Z,74.30
2023-02-23T11:09:41.867Z,74.25
2023-02-23T11:12:21.701Z,73.67
2023-02-23T11:14:51.064Z,72.66
2023-02-23T11:17:30.274Z,70.93
2023-02-23T11:20:07.588Z,71.04
2023-02-23T11:22:38.912Z,71.06
2023-02-23T11:25:18.376Z,69.15
2023-02-23T11:27:53.796Z,67.73
2023-02-23T11:30:24.510Z,66.73
2023-02-23T11:32:57.529Z,70.31
2023-02-23T11:35:32.083Z,68.86
2023-02-23T11:38:00.459Z,69.55
2023-02-23T11:40:30.192Z,69.32
2023-02-23T11:43:07.329Z,69.81
2023-02-23T11:45:41.466Z,68.61
2023-02-23T11:48:22.148Z,66.16
2023-02-23T11:50:51.122Z,66.30
2023-02-23T11:53:22.259Z,63.70
2023-02-23T11:55:52.966Z,65.08
2023-02-23T11:58:26.983Z,65.24
2023-02-23T12:00:59.729Z,63.22
2023-02-23T12:03:32.080Z,63.31
2023-02-23T12:06:02.483Z,65.88
2023-02-23T12:08:38.793Z,66.20
2023-02-23T12:11:15.662Z,67.30
2023-02-23T12:13:47.502Z,66.19
2023-02-23T12:16:19.950Z,66.96
2023-02-23T12:18:55.901Z,66.90
2023-02-23T12:21:33.265Z,67.59
2023-02-23T12:24:11.094Z,64.80
2023-02-23T12:26:46.510Z,63.20
2023-02-23T12:29:22.731Z,63.77
2023-02-23T12:31:57.866Z,63.81
2023-02-23T12:34:31.814Z,62.08
2023-02-23T12:37:07.452Z,64.77
2023-02-23T12:39:39.811Z,66.34
2023-02-23T12:42:14.555Z,67.16
2023-02-23T12:44:47.753Z,67.74
2023-02-23T12:47:25.679Z,65.20
2023-02-23T12:50:00.297Z,67.58
2023-02-23T12:52:32.955Z,68.70
2023-02-23T12:55:00.808Z,70.10
2023-02-23T12:57:38.598Z,70.87
2023-02-23T13:00:41.001Z,71.16
2023-02-23T13:03:36.341Z,70.54
2023-02-23T13:06:12.052Z,70.07
2023-02-23T13:09:00.155Z,69.01
2023-02-23T13:11:47.035Z,70.82
2023-02-23T13:14:23.310Z,71.56
2023-02-23T13:16:55.425Z,70.68
2023-02-23T13:19:34.510Z,71.92
2023-02-23T13:22:22.224Z,70.79
2023-02-23T13:24:52.697Z,70.14
2023-02-23T13:27:28.231Z,70.97
2023-02-23T13:29:59.205Z,71.10
2023-02-23T13:32:32.001Z,70.38
2023-02-23T13:35:01.601Z,69.99
2023-02-23T13:37:36.547Z,70.98
2023-02-23T13:40:21.712Z,69.47
2023-02-23T13:43:01.042Z,68.14
2023-02-23T13:45:39.758Z,67.79
2023-02-23T13:48:20.363Z,69.13
2023-02-23T13:50:55.736Z,67.57
2023-02-23T13:53:41.645Z,67.72
2023-02-23T13:56:11.556Z,68.27
2023-02-23T13:58:47.932Z,68.89
2023-02-23T14:01:18.868Z,66.85
2023-02-23T14:03:54.685Z,66.67
2023-02-23T14:06:25.773Z,64.71
2023-02-23T14:09:00.744Z,64.76
2023-02-23T14:11:42.444Z,64.35
2023-02-23T14:14:17.031Z,63.16
2023-02-23T14:17:05.498Z,62.48
2023-02-23T14:19:37.640Z,61.07
2023-02-23T14:22:11.061Z,59.99
2023-02-23T14:24:40.473Z,60.32
2023-02-23T14:27:41.593Z,61.37
2023-02-23T14:30:25.422Z,63.75
2023-02-23T14:32:54.676Z,63.85
2023-02-23T14:35:50.617Z,63.14
2023-02-23T14:38:45.685Z,62.17
2023-02-23T14:41:22.621Z,62.38
2023-02-23T14:43:55.482Z,62.84
2023-02-23T14:46:26.162Z,63.24
2023-02-23T14:49:00.586Z,62.89
2023-02-23T14:51:42.296Z,63.61
2023-02-23T14:54:16.111Z,62.47
2023-02-23T14:56:50.716Z,65.45
2023-02-23T14:59:22.021Z,64.82
2023-02-23T15:01:51.976Z,64.49
2023-02-23T15:04:24.727Z,64.72
2023-02-23T15:06:56.122Z,65.17
2023-02-23T15:09:32.369Z,63.89
2023-02-23T15:12:15.017Z,63.13
2023-02-23T15:14:45.881Z,62.71
2023-02-23T15:17:19.691Z,62.96
2023-02-23T15:19:49.987Z,63.25
2023-02-23T15:22:24.746Z,62.62
2023-02-23T15:24:52.590Z,62.86
2023-02-23T15:27:26.953Z,63.75
2023-02-23T15:29:55.472Z,65.53
2023-02-23T15:32:26.161Z,67.10
2023-02-23T15:34:55.459Z,67.56
2023-02-23T15:37:31.562Z,66.66
2023-02-23T15:40:04.193Z,67.31
2023-02-23T15:42:38.193Z,67.67
2023-02-23T15:45:17.828Z,68.85
2023-02-23T15:47:45.689Z,69.70
2023-02-23T15:50:27.651Z,68.95
2023-02-23T15:53:02.083Z,69.06
2023-02-23T15:55:36.190Z,68.80
2023-02-23T15:58:18.759Z,68.81
2023-02-23T16:00:52.426Z,69.56
2023-02-23T16:03:25.269Z,69.92
2023-02-23T16:06:03.229Z,70.41
2023-02-23T16:08:35.927Z,71.58
2023-02-23T16:11:13.450Z,72.30
2023-02-23T16:13:45.861Z,72.64
2023-02-23T16:16:19.410Z,71.43
2023-02-23T16:18:52.058Z,70.56
2023-02-23T16:21:24.484Z,71.18
2023-02-23T16:23:54.677Z,71.51
2023-02-23T16:26:28.899Z,70.42
2023-02-23T16:29:00.711Z,70.92
2023-02-23T16:31:43.784Z,71.55
2023-02-23T16:34:22.291Z,70.15
2023-02-23T16:36:52.736Z,71.90
2023-02-23T16:39:25.363Z,71.67
2023-02-23T16:41:53.256Z,70.95
2023-02-23T16:44:26.350Z,70.72
2023-02-23T16:47:11.078Z,70.15
2023-02-23T16:49:39.224Z,70.01
2023-02-23T16:52:17.737Z,70.38
2023-02-23T16:54:48.348Z,70.15
2023-02-23T16:57:23.355Z,70.18
2023-02-23T16:59:55.069Z,70.73
2023-02-23T17:02:23.793Z,70.90
2023-02-23T17:04:58.964Z,71.04
2023-02-23T17:07:29.295Z,71.93
2023-02-23T17:09:57.041Z,71.68
2023-02-23T17:12:24.790Z,71.47
2023-02-23T17:14:53.987Z,72.13
2023-02-23T17:17:24.248Z,72.47
2023-02-23T17:19:52.094Z,72.48
2023-02-23T17:22:19.877Z,73.36
2023-02-23T17:24:47.668Z,73.24
2023-02-23T17:27:15.411Z,74.78
2023-02-23T17:29:43.181Z,74.29
2023-02-23T17:32:12.585Z,74.76
2023-02-23T17:34:40.640Z,74.64
2023-02-23T17:37:08.354Z,74.87
2023-02-23T17:39:37.493Z,74.94
2023-02-23T17:42:06.728Z,75.10
2023-02-23T17:44:34.466Z,75.08
2023-02-23T17:47:02.298Z,75.77
2023-02-23T17:49:31.432Z,75.35
2023-02-23T17:51:59.284Z,75.94
2023-02-23T17:54:29.056Z,76.31
2023-02-23T17:56:57.907Z,76.74
2023-02-23T17:59:25.719Z,76.58
2023-02-23T18:01:53.489Z,76.51
2023-02-23T18:04:21.327Z,76.52
2023-02-23T18:06:50.521Z,76.39
2023-02-23T18:09:18.318Z,76.75
2023-02-23T18:11:48.424Z,77.14
2023-02-23T18:14:17.166Z,77.26
2023-02-23T18:16:44.878Z,77.24
2023-02-23T18:19:13.060Z,77.09
2023-02-23T18:21:41.785Z,77.74
2023-02-23T18:24:11.821Z,77.53
2023-02-23T18:26:39.830Z,78.84
2023-02-23T18:29:08.037Z,80.79
2023-02-23T18:31:35.993Z,81.47
2023-02-23T18:34:03.823Z,80.47
2023-02-23T18:36:35.357Z,80.17
2023-02-23T18:39:06.441Z,79.52
2023-02-23T18:41:36.399Z,79.72
2023-02-23T18:44:08.778Z,80.25
2023-02-23T18:46:39.889Z,79.67
2023-02-23T18:49:08.228Z,80.87
2023-02-23T18:51:36.194Z,79.90
2023-02-23T18:54:10.604Z,80.44
2023-02-23T18:56:40.490Z,80.46
2023-02-23T18:59:08.389Z,80.14
2023-02-23T19:01:38.110Z,80.37
2023-02-23T19:04:10.833Z,80.10
2023-02-23T19:06:43.038Z,79.98
2023-02-23T19:09:14.547Z,79.70
2023-02-23T19:11:44.596Z,79.79
2023-02-23T19:14:15.833Z,80.11
2023-02-23T19:16:46.804Z,83.75
2023-02-23T19:19:16.084Z,83.78
2023-02-23T19:21:44.971Z,83.54
2023-02-23T19:24:14.258Z,83.20
2023-02-23T19:26:44.496Z,83.58
2023-02-23T19:29:12.855Z,83.60
2023-02-23T19:31:41.346Z,84.62
2023-02-23T19:34:12.804Z,85.34
2023-02-23T19:36:41.337Z,86.04
2023-02-23T19:39:15.807Z,85.92
2023-02-23T19:41:45.806Z,84.67
2023-02-23T19:44:14.417Z,82.71
2023-02-23T19:46:43.960Z,82.08
2023-02-23T19:49:11.952Z,83.44
2023-02-23T19:51:42.035Z,82.88
2023-02-23T19:54:09.834Z,82.29
2023-02-23T19:56:38.705Z,81.93
2023-02-23T19:59:07.915Z,81.77
2023-02-23T20:01:36.110Z,82.59
2023-02-23T20:04:06.602Z,81.94
2023-02-23T20:06:44.710Z,82.82
2023-02-23T20:09:12.760Z,81.63
2023-02-23T20:11:42.860Z,83.27
2023-02-23T20:14:12.567Z,84.14
2023-02-23T20:16:40.547Z,83.79
2023-02-23T20:19:08.413Z,86.53
2023-02-23T20:21:36.840Z,86.68
2023-02-23T20:24:07.503Z,86.73
2023-02-23T20:26:37.861Z,86.78
2023-02-23T20:29:10.958Z,86.42
2023-02-23T20:31:46.898Z,84.11
2023-02-23T20:34:14.845Z,82.92
2023-02-23T20:36:42.618Z,83.23
2023-02-23T20:39:11.180Z,83.99
2023-02-23T20:41:43.280Z,83.70
2023-02-23T20:44:11.589Z,83.70
2023-02-23T20:46:41.547Z,84.41
2023-02-23T20:49:12.516Z,84.24
2023-02-23T20:51:42.290Z,84.25
2023-02-23T20:54:11.705Z,83.85
2023-02-23T20:56:40.230Z,85.58
2023-02-23T20:59:11.070Z,86.85
2023-02-23T21:01:42.418Z,86.56
2023-02-23T21:04:12.691Z,86.16
2023-02-23T21:06:40.584Z,87.31
2023-02-23T21:09:12.595Z,87.45
2023-02-23T21:11:40.435Z,88.72
2023-02-23T21:14:08.437Z,88.96
2023-02-23T21:16:40.878Z,89.36
2023-02-23T21:19:13.934Z,88.35
2023-02-23T21:21:42.718Z,86.55
2023-02-23T21:24:11.412Z,86.28
2023-02-23T21:26:39.287Z,85.72
2023-02-23T21:29:11.638Z,85.02
2023-02-23T21:31:40.338Z,85.36
2023-02-23T21:34:08.864Z,85.29
2023-02-23T21:36:38.172Z,85.15
2023-02-23T21:39:07.035Z,84.21
2023-02-23T21:41:37.643Z,83.93
2023-02-23T21:44:07.367Z,84.08
2023-02-23T21:46:35.413Z,84.04
2023-02-23T21:49:09.629Z,83.70
2023-02-23T21:51:39.266Z,83.58
2023-02-23T21:54:07.261Z,83.74
2023-02-23T21:56:36.670Z,84.97
2023-02-23T21:59:06.204Z,84.93
2023-02-23T22:01:36.270Z,84.12
2023-02-23T22:04:05.224Z,84.02
2023-02-23T22:06:36.862Z,84.07
2023-02-23T22:09:06.550Z,83.74
2023-02-23T22:11:37.094Z,83.94
2023-02-23T22:14:10.039Z,85.65
2023-02-23T22:16:41.026Z,85.55
2023-02-23T22:19:09.721Z,85.25
2023-02-23T22:21:39.468Z,85.33
2023-02-23T22:24:10.493Z,84.71
2023-02-23T22:26:41.606Z,84.55
2023-02-23T22:29:10.802Z,84.43
2023-02-23T22:31:41.155Z,84.24
2023-02-23T22:34:09.136Z,83.77
2023-02-23T22:36:36.928Z,84.35
2023-02-23T22:39:07.331Z,84.61
2023-02-23T22:41:42.209Z,84.21
2023-02-23T22:44:13.298Z,84.54
2023-02-23T22:46:45.898Z,84.70
2023-02-23T22:49:15.802Z,84.33
2023-02-23T22:51:44.588Z,84.41
2023-02-23T22:54:13.246Z,84.61
2023-02-23T22:56:42.984Z,84.91
2023-02-23T22:59:11.259Z,84.50
2023-02-23T23:01:40.344Z,84.86
2023-02-23T23:04:11.145Z,85.47
2023-02-23T23:06:41.336Z,86.96
2023-02-23T23:09:13.293Z,86.28
2023-02-23T23:11:42.644Z,85.54
2023-02-23T23:14:11.402Z,85.04
2023-02-23T23:16:47.930Z,84.52
2023-02-23T23:19:17.665Z,84.38
2023-02-23T23:21:46.033Z,84.93
2023-02-23T23:24:15.211Z,85.54
2023-02-23T23:26:45.094Z,85.88
2023-02-23T23:29:14.871Z,85.33
2023-02-23T23:31:45.279Z,85.08
2023-02-23T23:34:16.419Z,85.25
2023-02-23T23:36:49.034Z,86.90
2023-02-23T23:39:17.384Z,86.10
2023-02-23T23:41:48.053Z,85.36
2023-02-23T23:44:17.100Z,84.79
2023-02-23T23:46:46.934Z,84.58
2023-02-23T23:49:17.526Z,84.58
2023-02-23T23:51:50.597Z,84.69
2023-02-23T23:54:21.456Z,84.56
2023-02-23T23:56:51.113Z,84.54
2023-02-23T23:59:21.232Z,84.17
